Clearmont, Wyoming
Current Conditions -  °F | °C
As of 2:09 PM on Wednesday 26 Nov 2014 (Local Time) from KBYG Reporting Station
Light Snow Light Snow  
Wind Chill: 19°   Ceiling: 700
Heat Index: 27°   Visibility: 3mi
Dew Point: 23°   Wind: 8mph
Humidity: 85%   Direction: 140°SE
Pressure: 30.15"   Gusts: NA
Location:  44.64°N, 106.38°W
Report Text: KBYG 262109Z AUTO 14007KT 3SM -SN BR OVC007 M03/M05 A3015 RMK AO2 P0000 T10281050
Loading
Personal Weather Stations






























Interactive Weather Map New forecast layout! Learn more

10-Day Weather Forecast

Advertisements
Track Severe Weather on mobile